createdAt,value
2022-07-28T00:03:55.720Z,101512.94
2022-07-28T00:08:59.135Z,101516.47
2022-07-28T00:14:01.152Z,101519.13
2022-07-28T00:19:03.437Z,101510.28
2022-07-28T00:24:07.620Z,101515.50
2022-07-28T00:29:09.672Z,101519.03
2022-07-28T00:34:12.323Z,101522.56
2022-07-28T00:39:16.005Z,101523.44
2022-07-28T00:44:18.102Z,101519.88
2022-07-28T00:49:20.376Z,101523.44
2022-07-28T00:54:23.936Z,101520.72
2022-07-28T00:59:26.364Z,101518.06
2022-07-28T01:04:29.175Z,101521.59
2022-07-28T01:09:48.355Z,101530.44
2022-07-28T01:14:52.722Z,101520.66
2022-07-28T01:20:03.704Z,101528.56
2022-07-28T01:25:21.521Z,101524.03
2022-07-28T01:30:32.648Z,101521.41
2022-07-28T01:35:41.987Z,101534.69
2022-07-28T01:40:46.271Z,101530.34
2022-07-28T01:45:56.055Z,101532.03
2022-07-28T01:50:58.955Z,101528.44
2022-07-28T01:56:03.436Z,101530.09
2022-07-28T02:01:07.807Z,101522.19
2022-07-28T02:06:12.557Z,101526.53
2022-07-28T02:11:14.635Z,101508.00
2022-07-28T02:16:22.527Z,101519.44
2022-07-28T02:21:26.155Z,101520.31
2022-07-28T02:26:32.011Z,101517.63
2022-07-28T02:31:42.098Z,101522.03
2022-07-28T02:36:51.287Z,101529.06
2022-07-28T02:42:01.378Z,101530.81
2022-07-28T02:47:07.926Z,101537.78
2022-07-28T02:52:11.627Z,101530.69
2022-07-28T02:57:15.606Z,101536.00
2022-07-28T03:02:21.262Z,101537.72
2022-07-28T03:07:23.649Z,101545.56
2022-07-28T03:12:26.534Z,101541.13
2022-07-28T03:17:30.063Z,101546.44
2022-07-28T03:22:32.273Z,101558.75
2022-07-28T03:27:38.831Z,101562.97
2022-07-28T03:32:45.782Z,101568.41
2022-07-28T03:37:54.531Z,101570.19
2022-07-28T03:42:58.179Z,101574.63
2022-07-28T03:48:01.872Z,101572.97
2022-07-28T03:53:03.952Z,101573.84
2022-07-28T03:58:06.133Z,101586.28
2022-07-28T04:03:36.548Z,101594.28
2022-07-28T04:08:32.179Z,101582.94
2022-07-28T04:13:34.364Z,101590.97
2022-07-28T04:18:37.892Z,101590.16
2022-07-28T04:23:41.660Z,101591.16
2022-07-28T04:28:44.013Z,101591.25
2022-07-28T04:33:47.100Z,101583.44
2022-07-28T04:38:49.240Z,101584.47
2022-07-28T04:43:51.312Z,101597.88
2022-07-28T04:48:54.446Z,101592.44
2022-07-28T04:53:56.230Z,101594.16
2022-07-28T04:58:58.049Z,101586.34
2022-07-28T05:04:01.245Z,101591.16
2022-07-28T05:09:03.371Z,101594.50
2022-07-28T05:14:05.259Z,101590.16
2022-07-28T05:19:08.579Z,101596.19
2022-07-28T05:24:10.964Z,101593.91
2022-07-28T05:29:13.147Z,101599.47
2022-07-28T05:34:16.566Z,101593.13
2022-07-28T05:39:19.253Z,101610.03
2022-07-28T05:44:20.961Z,101615.41
2022-07-28T05:49:24.501Z,101612.03
2022-07-28T05:54:26.295Z,101619.41
2022-07-28T05:59:28.021Z,101628.72
2022-07-28T06:04:31.563Z,101632.75
2022-07-28T06:09:33.745Z,101622.38
2022-07-28T06:14:35.815Z,101622.53
2022-07-28T06:19:38.869Z,101619.88
2022-07-28T06:24:41.032Z,101628.94
2022-07-28T06:29:43.312Z,101626.53
2022-07-28T06:34:46.835Z,101625.22
2022-07-28T06:39:48.911Z,101630.66
2022-07-28T06:44:59.087Z,101620.53
2022-07-28T06:50:03.973Z,101626.72
2022-07-28T06:55:07.250Z,101631.72
2022-07-28T07:00:13.203Z,101631.94
2022-07-28T07:05:16.678Z,101625.72
2022-07-28T07:10:18.680Z,101616.97
2022-07-28T07:15:20.454Z,101614.88
2022-07-28T07:20:23.739Z,101611.19
2022-07-28T07:25:25.655Z,101622.84
2022-07-28T07:30:27.664Z,101624.13
2022-07-28T07:35:31.178Z,101613.34
2022-07-28T07:40:33.313Z,101619.81
2022-07-28T07:45:35.041Z,101620.34
2022-07-28T07:50:39.141Z,101619.72
2022-07-28T07:55:40.848Z,101619.75
2022-07-28T08:00:43.096Z,101620.41
2022-07-28T08:05:46.413Z,101626.88
2022-07-28T08:10:48.527Z,101620.25
2022-07-28T08:15:50.776Z,101622.13
2022-07-28T08:20:53.877Z,101615.44
2022-07-28T08:25:55.940Z,101624.88
2022-07-28T08:30:58.382Z,101627.44
2022-07-28T08:36:01.528Z,101630.44
2022-07-28T08:41:04.996Z,101623.63
2022-07-28T08:46:06.965Z,101632.91
2022-07-28T08:51:11.886Z,101626.03
2022-07-28T08:56:15.363Z,101628.56
2022-07-28T09:01:17.452Z,101628.09
2022-07-28T09:06:22.613Z,101629.66
2022-07-28T09:11:28.053Z,101625.78
2022-07-28T09:16:30.236Z,101629.13
2022-07-28T09:21:33.763Z,101626.69
2022-07-28T09:26:35.503Z,101629.16
2022-07-28T09:31:57.119Z,101627.28
2022-07-28T09:37:00.990Z,101630.94
2022-07-28T09:42:02.989Z,101628.31
2022-07-28T09:47:22.222Z,101631.00
2022-07-28T09:52:30.139Z,101630.06
2022-07-28T09:57:33.682Z,101622.41
2022-07-28T10:02:39.323Z,101627.91
2022-07-28T10:07:50.303Z,101613.78
2022-07-28T10:13:05.324Z,101608.09
2022-07-28T10:18:07.479Z,101604.28
2022-07-28T10:23:11.254Z,101600.38
2022-07-28T10:28:17.139Z,101614.69
2022-07-28T10:33:20.164Z,101600.59
2022-07-28T10:38:27.118Z,101600.16
2022-07-28T10:43:29.696Z,101594.19
2022-07-28T10:48:32.032Z,101583.34
2022-07-28T10:53:43.184Z,101581.91
2022-07-28T10:58:53.374Z,101583.13
2022-07-28T11:03:55.395Z,101578.72
2022-07-28T11:09:00.841Z,101578.66
2022-07-28T11:14:30.820Z,101574.44
2022-07-28T11:20:00.928Z,101556.88
2022-07-28T11:25:19.483Z,101554.47
2022-07-28T11:30:51.728Z,101553.38
2022-07-28T11:35:59.289Z,101549.03
2022-07-28T11:41:02.414Z,101551.66
2022-07-28T11:46:32.033Z,101536.16
2022-07-28T11:51:38.768Z,101534.66
2022-07-28T11:56:58.841Z,101540.44
2022-07-28T12:02:00.580Z,101534.34
2022-07-28T12:07:04.075Z,101525.03
2022-07-28T12:12:09.112Z,101532.31
2022-07-28T12:17:10.991Z,101521.06
2022-07-28T12:22:15.884Z,101534.13
2022-07-28T12:27:29.159Z,101523.38
2022-07-28T12:32:35.265Z,101518.34
2022-07-28T12:37:37.695Z,101522.47
2022-07-28T12:42:40.964Z,101513.13
2022-07-28T12:47:42.802Z,101507.09
2022-07-28T12:53:02.722Z,101506.53
2022-07-28T12:58:07.163Z,101500.28
2022-07-28T13:03:21.191Z,101510.56
2022-07-28T13:08:23.500Z,101497.28
2022-07-28T13:13:27.162Z,101490.16
2022-07-28T13:18:38.827Z,101491.97
2022-07-28T13:23:40.817Z,101477.34
2022-07-28T13:28:43.972Z,101476.19
2022-07-28T13:33:45.664Z,101476.94
2022-07-28T13:38:47.603Z,101477.78
2022-07-28T13:43:51.326Z,101474.97
2022-07-28T13:48:59.892Z,101467.72
2022-07-28T13:54:02.806Z,101464.28
2022-07-28T13:59:08.677Z,101458.06
2022-07-28T14:04:14.841Z,101454.94
2022-07-28T14:09:21.179Z,101441.16
2022-07-28T14:14:24.899Z,101436.06
2022-07-28T14:19:38.258Z,101439.88
2022-07-28T14:24:41.044Z,101437.50
2022-07-28T14:29:44.096Z,101434.25
2022-07-28T14:34:45.803Z,101428.53
2022-07-28T14:39:47.782Z,101432.75
2022-07-28T14:44:50.823Z,101420.97
2022-07-28T14:49:57.720Z,101416.28
2022-07-28T14:55:00.183Z,101409.06
2022-07-28T15:00:06.947Z,101404.72
2022-07-28T15:05:10.676Z,101400.19
2022-07-28T15:10:12.427Z,101408.59
2022-07-28T15:15:15.975Z,101411.53
2022-07-28T15:20:17.696Z,101412.16
2022-07-28T15:25:20.367Z,101406.97
2022-07-28T15:30:23.846Z,101405.94
2022-07-28T15:35:25.832Z,101395.41
2022-07-28T15:40:28.299Z,101391.44
2022-07-28T15:45:31.588Z,101393.47
2022-07-28T15:50:33.684Z,101396.19
2022-07-28T15:55:35.366Z,101383.22
2022-07-28T16:00:38.559Z,101382.75
2022-07-28T16:05:40.542Z,101378.53
2022-07-28T16:10:42.341Z,101378.09
2022-07-28T16:15:45.951Z,101379.31
2022-07-28T16:20:47.633Z,101379.56
2022-07-28T16:25:50.213Z,101379.44
2022-07-28T16:30:54.304Z,101377.00
2022-07-28T16:35:57.446Z,101384.25
2022-07-28T16:40:59.840Z,101378.13
2022-07-28T16:46:03.328Z,101383.34
2022-07-28T16:51:05.074Z,101378.22
2022-07-28T16:56:06.795Z,101382.53
2022-07-28T17:01:10.014Z,101383.56
2022-07-28T17:06:12.461Z,101377.06
2022-07-28T17:11:14.347Z,101376.66
2022-07-28T17:16:18.052Z,101378.97
2022-07-28T17:21:20.494Z,101387.47
2022-07-28T17:27:32.475Z,101382.41
2022-07-28T17:31:47.395Z,101381.56
2022-07-28T17:36:50.059Z,101383.88
2022-07-28T17:41:52.099Z,101387.91
2022-07-28T17:46:55.477Z,101388.88
2022-07-28T17:51:57.704Z,101397.47
2022-07-28T17:56:59.656Z,101399.16
2022-07-28T18:02:03.432Z,101398.69
2022-07-28T18:07:05.571Z,101395.94
2022-07-28T18:12:08.134Z,101394.84
2022-07-28T18:17:11.421Z,101396.72
2022-07-28T18:22:13.451Z,101383.56
2022-07-28T18:27:15.167Z,101388.03
2022-07-28T18:32:18.329Z,101368.72
2022-07-28T18:37:19.996Z,101377.63
2022-07-28T18:42:22.006Z,101375.19
2022-07-28T18:47:25.438Z,101383.84
2022-07-28T18:52:27.344Z,101384.94
2022-07-28T18:57:29.287Z,101380.38
2022-07-28T19:02:32.406Z,101384.28
2022-07-28T19:07:34.614Z,101384.34
2022-07-28T19:12:36.451Z,101381.78
2022-07-28T19:17:39.805Z,101385.53
2022-07-28T19:22:41.910Z,101386.81
2022-07-28T19:27:44.526Z,101390.63
2022-07-28T19:32:47.606Z,101391.34
2022-07-28T19:37:49.333Z,101392.28
2022-07-28T19:42:51.274Z,101398.47
2022-07-28T19:47:54.260Z,101395.16
2022-07-28T19:52:56.588Z,101405.06
2022-07-28T19:57:58.759Z,101408.81
2022-07-28T20:03:02.351Z,101415.22
2022-07-28T20:08:05.102Z,101417.69
2022-07-28T20:13:07.093Z,101413.38
2022-07-28T20:18:10.152Z,101418.97
2022-07-28T20:23:11.962Z,101425.09
2022-07-28T20:28:14.147Z,101433.97
2022-07-28T20:33:17.640Z,101437.22
2022-07-28T20:38:19.520Z,101432.97
2022-07-28T20:43:21.844Z,101435.53
2022-07-28T20:48:25.343Z,101431.97
2022-07-28T20:53:27.563Z,101425.09
2022-07-28T20:58:29.629Z,101433.41
2022-07-28T21:03:33.203Z,101432.59
2022-07-28T21:08:35.401Z,101436.63
2022-07-28T21:13:40.014Z,101442.16
2022-07-28T21:18:43.519Z,101447.25
2022-07-28T21:23:45.614Z,101456.81
2022-07-28T21:28:47.524Z,101442.28
2022-07-28T21:33:51.169Z,101456.06
2022-07-28T21:38:53.252Z,101462.59
2022-07-28T21:43:58.684Z,101453.88
2022-07-28T21:49:05.833Z,101456.94
2022-07-28T21:54:08.802Z,101456.38
2022-07-28T21:59:10.792Z,101463.00
2022-07-28T22:04:14.534Z,101464.22
2022-07-28T22:09:16.793Z,101468.94
2022-07-28T22:14:19.005Z,101468.31
2022-07-28T22:19:22.898Z,101465.84
2022-07-28T22:24:25.110Z,101472.25
2022-07-28T22:29:27.235Z,101485.69
2022-07-28T22:34:34.469Z,101487.41
2022-07-28T22:39:36.617Z,101493.81
2022-07-28T22:44:38.538Z,101487.72
2022-07-28T22:49:42.017Z,101500.31
2022-07-28T22:54:43.778Z,101487.91
2022-07-28T22:59:46.894Z,101490.56
2022-07-28T23:04:54.789Z,101507.47
2022-07-28T23:09:58.354Z,101501.16
2022-07-28T23:15:00.101Z,101499.38
2022-07-28T23:20:03.703Z,101505.28
2022-07-28T23:25:06.146Z,101503.19
2022-07-28T23:30:08.819Z,101508.41
2022-07-28T23:35:12.242Z,101492.72
2022-07-28T23:40:14.765Z,101501.34
2022-07-28T23:45:17.147Z,101489.59
2022-07-28T23:50:21.035Z,101493.84
2022-07-28T23:55:23.413Z,101503.03
